sensor_id;sensor_type;location;lat;lon;timestamp;temperature;humidity
7796;DHT22;3942;51.518;6.912;2022-08-21T00:01:23;20.60;99.90
7796;DHT22;3942;51.518;6.912;2022-08-21T00:06:27;20.10;99.90
7796;DHT22;3942;51.518;6.912;2022-08-21T00:11:29;20.00;99.90
7796;DHT22;3942;51.518;6.912;2022-08-21T00:16:31;20.10;99.90
7796;DHT22;3942;51.518;6.912;2022-08-21T00:21:35;20.30;99.90
7796;DHT22;3942;51.518;6.912;2022-08-21T00:26:37;20.20;99.90
7796;DHT22;3942;51.518;6.912;2022-08-21T00:31:39;20.50;99.90
7796;DHT22;3942;51.518;6.912;2022-08-21T00:36:43;20.60;99.90
7796;DHT22;3942;51.518;6.912;2022-08-21T00:41:44;20.70;99.90
7796;DHT22;3942;51.518;6.912;2022-08-21T00:46:46;20.80;99.90
7796;DHT22;3942;51.518;6.912;2022-08-21T00:51:53;20.80;99.90
7796;DHT22;3942;51.518;6.912;2022-08-21T00:57:00;20.70;99.90
7796;DHT22;3942;51.518;6.912;2022-08-21T01:02:04;20.70;99.90
7796;DHT22;3942;51.518;6.912;2022-08-21T01:07:09;20.40;99.90
7796;DHT22;3942;51.518;6.912;2022-08-21T01:12:12;20.30;99.90
7796;DHT22;3942;51.518;6.912;2022-08-21T01:17:15;20.30;99.90
7796;DHT22;3942;51.518;6.912;2022-08-21T01:22:19;20.20;99.90
7796;DHT22;3942;51.518;6.912;2022-08-21T01:27:21;20.20;99.90
7796;DHT22;3942;51.518;6.912;2022-08-21T01:32:24;20.20;99.90
7796;DHT22;3942;51.518;6.912;2022-08-21T01:37:27;20.20;99.90
7796;DHT22;3942;51.518;6.912;2022-08-21T01:42:29;20.20;99.90
7796;DHT22;3942;51.518;6.912;2022-08-21T01:47:31;20.00;99.90
7796;DHT22;3942;51.518;6.912;2022-08-21T01:52:34;19.50;99.90
7796;DHT22;3942;51.518;6.912;2022-08-21T01:57:36;19.90;99.90
7796;DHT22;3942;51.518;6.912;2022-08-21T02:07:45;20.00;99.90
7796;DHT22;3942;51.518;6.912;2022-08-21T02:12:48;20.00;99.90
7796;DHT22;3942;51.518;6.912;2022-08-21T02:17:52;19.80;99.90
7796;DHT22;3942;51.518;6.912;2022-08-21T02:22:56;19.80;99.90
7796;DHT22;3942;51.518;6.912;2022-08-21T02:27:59;19.50;99.90
7796;DHT22;3942;51.518;6.912;2022-08-21T02:33:02;19.70;99.90
7796;DHT22;3942;51.518;6.912;2022-08-21T02:38:07;19.60;99.90
7796;DHT22;3942;51.518;6.912;2022-08-21T02:43:09;19.60;99.90
7796;DHT22;3942;51.518;6.912;2022-08-21T02:48:13;19.70;99.90
7796;DHT22;3942;51.518;6.912;2022-08-21T02:53:17;19.70;99.90
7796;DHT22;3942;51.518;6.912;2022-08-21T02:58:23;19.60;99.90
7796;DHT22;3942;51.518;6.912;2022-08-21T03:03:26;19.70;99.90
7796;DHT22;3942;51.518;6.912;2022-08-21T03:08:29;19.70;99.90
7796;DHT22;3942;51.518;6.912;2022-08-21T03:13:31;19.60;99.90
7796;DHT22;3942;51.518;6.912;2022-08-21T03:18:33;19.60;99.90
7796;DHT22;3942;51.518;6.912;2022-08-21T03:23:37;19.50;99.90
7796;DHT22;3942;51.518;6.912;2022-08-21T03:28:40;19.60;99.90
7796;DHT22;3942;51.518;6.912;2022-08-21T03:33:42;19.50;99.90
7796;DHT22;3942;51.518;6.912;2022-08-21T03:38:45;19.50;99.90
7796;DHT22;3942;51.518;6.912;2022-08-21T03:43:47;19.40;99.90
7796;DHT22;3942;51.518;6.912;2022-08-21T03:48:49;19.40;99.90
7796;DHT22;3942;51.518;6.912;2022-08-21T03:53:54;19.40;99.90
7796;DHT22;3942;51.518;6.912;2022-08-21T03:58:56;19.20;99.90
7796;DHT22;3942;51.518;6.912;2022-08-21T04:03:58;19.10;99.90
7796;DHT22;3942;51.518;6.912;2022-08-21T04:09:02;19.00;99.90
7796;DHT22;3942;51.518;6.912;2022-08-21T04:14:04;19.00;99.90
7796;DHT22;3942;51.518;6.912;2022-08-21T04:19:05;18.90;99.90
7796;DHT22;3942;51.518;6.912;2022-08-21T04:24:10;18.60;99.90
7796;DHT22;3942;51.518;6.912;2022-08-21T04:29:12;18.60;99.90
7796;DHT22;3942;51.518;6.912;2022-08-21T04:34:13;18.80;99.90
7796;DHT22;3942;51.518;6.912;2022-08-21T04:39:17;18.80;99.90
7796;DHT22;3942;51.518;6.912;2022-08-21T04:44:19;18.70;99.90
7796;DHT22;3942;51.518;6.912;2022-08-21T04:49:20;18.70;99.90
7796;DHT22;3942;51.518;6.912;2022-08-21T04:54:24;18.70;99.90
7796;DHT22;3942;51.518;6.912;2022-08-21T04:59:29;18.70;99.90
7796;DHT22;3942;51.518;6.912;2022-08-21T05:04:35;18.80;99.90
7796;DHT22;3942;51.518;6.912;2022-08-21T05:09:40;18.80;99.90
7796;DHT22;3942;51.518;6.912;2022-08-21T05:14:43;18.90;99.90
7796;DHT22;3942;51.518;6.912;2022-08-21T05:19:44;19.10;99.90
7796;DHT22;3942;51.518;6.912;2022-08-21T05:24:48;19.30;99.90
7796;DHT22;3942;51.518;6.912;2022-08-21T05:29:50;19.30;99.90
7796;DHT22;3942;51.518;6.912;2022-08-21T05:34:51;19.00;99.90
7796;DHT22;3942;51.518;6.912;2022-08-21T05:39:55;19.30;99.90
7796;DHT22;3942;51.518;6.912;2022-08-21T05:44:57;19.50;99.90
7796;DHT22;3942;51.518;6.912;2022-08-21T05:49:59;19.70;99.90
7796;DHT22;3942;51.518;6.912;2022-08-21T05:55:02;19.70;99.90
7796;DHT22;3942;51.518;6.912;2022-08-21T06:00:05;19.90;99.90
7796;DHT22;3942;51.518;6.912;2022-08-21T06:05:09;20.10;99.90
7796;DHT22;3942;51.518;6.912;2022-08-21T06:10:12;20.40;99.90
7796;DHT22;3942;51.518;6.912;2022-08-21T06:15:14;20.30;99.90
7796;DHT22;3942;51.518;6.912;2022-08-21T06:20:16;20.70;99.90
7796;DHT22;3942;51.518;6.912;2022-08-21T06:25:20;21.10;99.90
7796;DHT22;3942;51.518;6.912;2022-08-21T06:30:21;21.20;99.90
7796;DHT22;3942;51.518;6.912;2022-08-21T06:35:23;21.40;99.90
7796;DHT22;3942;51.518;6.912;2022-08-21T06:40:28;21.50;99.90
7796;DHT22;3942;51.518;6.912;2022-08-21T06:45:30;21.90;99.90
7796;DHT22;3942;51.518;6.912;2022-08-21T06:50:33;22.40;99.90
7796;DHT22;3942;51.518;6.912;2022-08-21T06:55:37;22.80;99.90
7796;DHT22;3942;51.518;6.912;2022-08-21T07:00:41;23.10;99.90
7796;DHT22;3942;51.518;6.912;2022-08-21T07:05:43;23.40;99.90
7796;DHT22;3942;51.518;6.912;2022-08-21T07:10:47;23.60;99.90
7796;DHT22;3942;51.518;6.912;2022-08-21T07:15:49;23.90;99.90
7796;DHT22;3942;51.518;6.912;2022-08-21T07:20:51;24.00;99.90
7796;DHT22;3942;51.518;6.912;2022-08-21T07:25:55;24.00;99.90
7796;DHT22;3942;51.518;6.912;2022-08-21T07:30:58;24.70;99.90
7796;DHT22;3942;51.518;6.912;2022-08-21T07:36:01;24.40;99.90
7796;DHT22;3942;51.518;6.912;2022-08-21T07:41:10;24.30;99.90
7796;DHT22;3942;51.518;6.912;2022-08-21T07:46:14;24.70;99.90
7796;DHT22;3942;51.518;6.912;2022-08-21T07:51:17;25.00;99.90
7796;DHT22;3942;51.518;6.912;2022-08-21T07:56:21;25.20;99.90
7796;DHT22;3942;51.518;6.912;2022-08-21T08:01:24;25.50;99.90
7796;DHT22;3942;51.518;6.912;2022-08-21T08:06:26;25.50;99.90
7796;DHT22;3942;51.518;6.912;2022-08-21T08:11:29;25.50;99.90
7796;DHT22;3942;51.518;6.912;2022-08-21T08:16:31;25.70;99.90
7796;DHT22;3942;51.518;6.912;2022-08-21T08:21:33;25.70;99.90
7796;DHT22;3942;51.518;6.912;2022-08-21T08:26:37;26.00;99.90
7796;DHT22;3942;51.518;6.912;2022-08-21T08:31:39;26.30;99.90
7796;DHT22;3942;51.518;6.912;2022-08-21T08:36:41;27.00;99.90
7796;DHT22;3942;51.518;6.912;2022-08-21T08:41:45;27.00;99.90
7796;DHT22;3942;51.518;6.912;2022-08-21T08:46:50;27.40;99.90
7796;DHT22;3942;51.518;6.912;2022-08-21T08:51:55;27.50;99.80
7796;DHT22;3942;51.518;6.912;2022-08-21T08:57:02;27.70;99.90
7796;DHT22;3942;51.518;6.912;2022-08-21T09:02:05;27.80;98.60
7796;DHT22;3942;51.518;6.912;2022-08-21T09:07:13;27.30;99.90
7796;DHT22;3942;51.518;6.912;2022-08-21T09:12:30;27.80;99.90
7796;DHT22;3942;51.518;6.912;2022-08-21T09:17:40;27.90;99.10
7796;DHT22;3942;51.518;6.912;2022-08-21T09:22:52;27.10;99.20
7796;DHT22;3942;51.518;6.912;2022-08-21T09:28:00;27.70;99.20
7796;DHT22;3942;51.518;6.912;2022-08-21T09:33:01;28.30;99.10
7796;DHT22;3942;51.518;6.912;2022-08-21T09:38:06;28.50;98.80
7796;DHT22;3942;51.518;6.912;2022-08-21T09:43:17;28.90;97.40
7796;DHT22;3942;51.518;6.912;2022-08-21T09:48:22;29.20;96.40
7796;DHT22;3942;51.518;6.912;2022-08-21T09:53:27;27.60;97.40
7796;DHT22;3942;51.518;6.912;2022-08-21T09:58:33;28.30;97.10
7796;DHT22;3942;51.518;6.912;2022-08-21T10:03:35;28.30;96.70
7796;DHT22;3942;51.518;6.912;2022-08-21T10:08:39;28.00;98.10
7796;DHT22;3942;51.518;6.912;2022-08-21T10:13:50;28.50;97.10
7796;DHT22;3942;51.518;6.912;2022-08-21T10:19:08;28.50;96.50
7796;DHT22;3942;51.518;6.912;2022-08-21T10:24:20;28.00;96.60
7796;DHT22;3942;51.518;6.912;2022-08-21T10:29:39;25.70;99.90
7796;DHT22;3942;51.518;6.912;2022-08-21T10:34:51;26.30;99.90
7796;DHT22;3942;51.518;6.912;2022-08-21T10:40:07;26.50;99.40
7796;DHT22;3942;51.518;6.912;2022-08-21T10:45:19;26.50;98.40
7796;DHT22;3942;51.518;6.912;2022-08-21T10:50:30;26.50;99.00
7796;DHT22;3942;51.518;6.912;2022-08-21T10:55:37;26.30;99.10
7796;DHT22;3942;51.518;6.912;2022-08-21T11:00:46;26.40;99.60
7796;DHT22;3942;51.518;6.912;2022-08-21T11:05:51;26.20;99.30
7796;DHT22;3942;51.518;6.912;2022-08-21T11:10:58;26.20;99.60
7796;DHT22;3942;51.518;6.912;2022-08-21T11:16:07;26.20;99.30
7796;DHT22;3942;51.518;6.912;2022-08-21T11:21:25;26.30;99.30
7796;DHT22;3942;51.518;6.912;2022-08-21T11:26:29;26.40;99.70
7796;DHT22;3942;51.518;6.912;2022-08-21T11:31:42;26.10;98.10
7796;DHT22;3942;51.518;6.912;2022-08-21T11:36:51;26.10;98.60
7796;DHT22;3942;51.518;6.912;2022-08-21T11:42:02;26.40;98.80
7796;DHT22;3942;51.518;6.912;2022-08-21T11:47:12;26.30;99.40
7796;DHT22;3942;51.518;6.912;2022-08-21T11:52:20;26.20;98.00
7796;DHT22;3942;51.518;6.912;2022-08-21T11:57:27;26.10;98.10
7796;DHT22;3942;51.518;6.912;2022-08-21T12:02:33;26.00;99.60
7796;DHT22;3942;51.518;6.912;2022-08-21T12:07:39;26.30;97.90
7796;DHT22;3942;51.518;6.912;2022-08-21T12:12:43;25.60;97.90
7796;DHT22;3942;51.518;6.912;2022-08-21T12:17:58;25.40;99.30
7796;DHT22;3942;51.518;6.912;2022-08-21T12:23:16;25.50;99.50
7796;DHT22;3942;51.518;6.912;2022-08-21T12:28:23;26.00;98.40
7796;DHT22;3942;51.518;6.912;2022-08-21T12:33:30;26.00;98.60
7796;DHT22;3942;51.518;6.912;2022-08-21T12:38:42;26.00;98.10
7796;DHT22;3942;51.518;6.912;2022-08-21T12:43:53;26.10;98.40
7796;DHT22;3942;51.518;6.912;2022-08-21T12:49:02;25.90;98.00
7796;DHT22;3942;51.518;6.912;2022-08-21T12:54:06;26.00;98.50
7796;DHT22;3942;51.518;6.912;2022-08-21T12:59:12;25.90;98.80
7796;DHT22;3942;51.518;6.912;2022-08-21T13:04:17;25.90;98.60
7796;DHT22;3942;51.518;6.912;2022-08-21T13:09:27;25.90;98.50
7796;DHT22;3942;51.518;6.912;2022-08-21T13:14:34;25.80;98.80
7796;DHT22;3942;51.518;6.912;2022-08-21T13:19:37;26.10;99.10
7796;DHT22;3942;51.518;6.912;2022-08-21T13:24:39;26.20;99.10
7796;DHT22;3942;51.518;6.912;2022-08-21T13:29:41;26.20;99.40
7796;DHT22;3942;51.518;6.912;2022-08-21T13:34:44;26.20;98.80
7796;DHT22;3942;51.518;6.912;2022-08-21T13:39:49;26.20;98.60
7796;DHT22;3942;51.518;6.912;2022-08-21T13:44:52;26.20;98.70
7796;DHT22;3942;51.518;6.912;2022-08-21T13:49:57;26.30;98.80
7796;DHT22;3942;51.518;6.912;2022-08-21T13:55:01;26.30;98.60
7796;DHT22;3942;51.518;6.912;2022-08-21T14:00:17;26.10;98.60
7796;DHT22;3942;51.518;6.912;2022-08-21T14:05:24;26.10;99.10
7796;DHT22;3942;51.518;6.912;2022-08-21T14:10:27;26.10;98.80
7796;DHT22;3942;51.518;6.912;2022-08-21T14:15:32;26.00;98.40
7796;DHT22;3942;51.518;6.912;2022-08-21T14:20:36;26.00;98.40
7796;DHT22;3942;51.518;6.912;2022-08-21T14:25:40;26.10;98.30
7796;DHT22;3942;51.518;6.912;2022-08-21T14:30:45;26.00;97.80
7796;DHT22;3942;51.518;6.912;2022-08-21T14:35:49;26.10;97.70
7796;DHT22;3942;51.518;6.912;2022-08-21T14:40:53;26.00;97.60
7796;DHT22;3942;51.518;6.912;2022-08-21T14:45:55;26.00;97.80
7796;DHT22;3942;51.518;6.912;2022-08-21T14:50:59;25.80;98.00
7796;DHT22;3942;51.518;6.912;2022-08-21T15:01:06;26.00;98.30
7796;DHT22;3942;51.518;6.912;2022-08-21T15:06:10;26.10;97.90
7796;DHT22;3942;51.518;6.912;2022-08-21T15:11:16;26.20;97.90
7796;DHT22;3942;51.518;6.912;2022-08-21T15:16:18;26.30;97.50
7796;DHT22;3942;51.518;6.912;2022-08-21T15:21:21;26.30;96.90
7796;DHT22;3942;51.518;6.912;2022-08-21T15:26:23;26.30;97.10
7796;DHT22;3942;51.518;6.912;2022-08-21T15:31:25;26.30;97.70
7796;DHT22;3942;51.518;6.912;2022-08-21T15:36:29;26.20;97.50
7796;DHT22;3942;51.518;6.912;2022-08-21T15:46:33;26.30;96.90
7796;DHT22;3942;51.518;6.912;2022-08-21T15:51:36;26.30;96.00
7796;DHT22;3942;51.518;6.912;2022-08-21T15:56:40;26.20;96.40
7796;DHT22;3942;51.518;6.912;2022-08-21T16:01:43;26.20;96.60
7796;DHT22;3942;51.518;6.912;2022-08-21T16:06:47;26.30;96.00
7796;DHT22;3942;51.518;6.912;2022-08-21T16:11:49;26.20;95.70
7796;DHT22;3942;51.518;6.912;2022-08-21T16:16:52;26.20;96.00
7796;DHT22;3942;51.518;6.912;2022-08-21T16:21:56;26.10;95.80
7796;DHT22;3942;51.518;6.912;2022-08-21T16:26:58;26.10;95.70
7796;DHT22;3942;51.518;6.912;2022-08-21T16:32:00;26.00;95.60
7796;DHT22;3942;51.518;6.912;2022-08-21T16:37:04;26.00;94.50
7796;DHT22;3942;51.518;6.912;2022-08-21T16:42:06;26.00;94.80
7796;DHT22;3942;51.518;6.912;2022-08-21T16:47:11;26.00;95.30
7796;DHT22;3942;51.518;6.912;2022-08-21T16:52:14;25.90;94.10
7796;DHT22;3942;51.518;6.912;2022-08-21T16:57:16;25.90;94.20
7796;DHT22;3942;51.518;6.912;2022-08-21T17:02:25;25.90;94.60
7796;DHT22;3942;51.518;6.912;2022-08-21T17:07:29;25.80;95.10
7796;DHT22;3942;51.518;6.912;2022-08-21T17:12:31;25.80;95.90
7796;DHT22;3942;51.518;6.912;2022-08-21T17:17:34;25.80;96.10
7796;DHT22;3942;51.518;6.912;2022-08-21T17:22:37;25.70;95.50
7796;DHT22;3942;51.518;6.912;2022-08-21T17:27:40;25.50;95.50
7796;DHT22;3942;51.518;6.912;2022-08-21T17:32:44;25.50;95.50
7796;DHT22;3942;51.518;6.912;2022-08-21T17:37:49;25.50;95.30
7796;DHT22;3942;51.518;6.912;2022-08-21T17:42:52;25.40;95.30
7796;DHT22;3942;51.518;6.912;2022-08-21T17:47:54;25.30;95.40
7796;DHT22;3942;51.518;6.912;2022-08-21T17:52:58;25.30;95.40
7796;DHT22;3942;51.518;6.912;2022-08-21T17:58:00;25.20;95.50
7796;DHT22;3942;51.518;6.912;2022-08-21T18:03:05;25.20;96.00
7796;DHT22;3942;51.518;6.912;2022-08-21T18:08:09;25.20;95.90
7796;DHT22;3942;51.518;6.912;2022-08-21T18:13:14;25.10;95.60
7796;DHT22;3942;51.518;6.912;2022-08-21T18:18:17;25.00;95.40
7796;DHT22;3942;51.518;6.912;2022-08-21T18:23:22;25.00;95.60
7796;DHT22;3942;51.518;6.912;2022-08-21T18:28:24;24.90;96.00
7796;DHT22;3942;51.518;6.912;2022-08-21T18:33:27;24.90;96.40
7796;DHT22;3942;51.518;6.912;2022-08-21T18:38:30;24.80;97.10
7796;DHT22;3942;51.518;6.912;2022-08-21T18:43:32;24.70;97.30
7796;DHT22;3942;51.518;6.912;2022-08-21T18:48:34;24.60;97.50
7796;DHT22;3942;51.518;6.912;2022-08-21T18:53:38;24.50;98.30
7796;DHT22;3942;51.518;6.912;2022-08-21T18:58:40;24.50;98.90
7796;DHT22;3942;51.518;6.912;2022-08-21T19:03:43;24.50;99.60
7796;DHT22;3942;51.518;6.912;2022-08-21T19:08:47;24.40;99.70
7796;DHT22;3942;51.518;6.912;2022-08-21T19:13:50;24.30;99.90
7796;DHT22;3942;51.518;6.912;2022-08-21T19:18:52;24.20;99.90
7796;DHT22;3942;51.518;6.912;2022-08-21T19:28:36;24.20;99.90
7796;DHT22;3942;51.518;6.912;2022-08-21T19:33:40;24.10;99.90
7796;DHT22;3942;51.518;6.912;2022-08-21T19:38:43;24.00;99.90
7796;DHT22;3942;51.518;6.912;2022-08-21T19:43:49;24.00;99.90
7796;DHT22;3942;51.518;6.912;2022-08-21T19:48:53;24.00;99.90
7796;DHT22;3942;51.518;6.912;2022-08-21T19:53:56;23.80;99.90
7796;DHT22;3942;51.518;6.912;2022-08-21T19:58:59;23.90;99.90
7796;DHT22;3942;51.518;6.912;2022-08-21T20:04:01;23.70;99.90
7796;DHT22;3942;51.518;6.912;2022-08-21T20:09:04;23.60;99.90
7796;DHT22;3942;51.518;6.912;2022-08-21T20:14:09;23.60;99.90
7796;DHT22;3942;51.518;6.912;2022-08-21T20:19:12;23.60;99.90
7796;DHT22;3942;51.518;6.912;2022-08-21T20:24:14;23.60;99.90
7796;DHT22;3942;51.518;6.912;2022-08-21T20:29:18;23.40;99.90
7796;DHT22;3942;51.518;6.912;2022-08-21T20:34:20;23.40;99.90
7796;DHT22;3942;51.518;6.912;2022-08-21T20:39:22;23.40;99.90
7796;DHT22;3942;51.518;6.912;2022-08-21T20:44:28;23.40;99.90
7796;DHT22;3942;51.518;6.912;2022-08-21T20:49:36;23.20;99.90
7796;DHT22;3942;51.518;6.912;2022-08-21T20:54:44;23.00;99.90
7796;DHT22;3942;51.518;6.912;2022-08-21T20:59:54;23.00;99.90
7796;DHT22;3942;51.518;6.912;2022-08-21T21:05:03;23.00;99.90
7796;DHT22;3942;51.518;6.912;2022-08-21T21:10:11;22.70;99.90
7796;DHT22;3942;51.518;6.912;2022-08-21T21:15:23;22.70;99.90
7796;DHT22;3942;51.518;6.912;2022-08-21T21:20:31;22.80;99.90
7796;DHT22;3942;51.518;6.912;2022-08-21T21:25:37;22.80;99.90
7796;DHT22;3942;51.518;6.912;2022-08-21T21:30:43;22.80;99.90
7796;DHT22;3942;51.518;6.912;2022-08-21T21:35:50;22.80;99.90
7796;DHT22;3942;51.518;6.912;2022-08-21T21:41:02;22.80;99.90
7796;DHT22;3942;51.518;6.912;2022-08-21T21:46:19;22.60;99.90
7796;DHT22;3942;51.518;6.912;2022-08-21T21:51:35;22.50;99.90
7796;DHT22;3942;51.518;6.912;2022-08-21T21:56:46;22.50;99.90
7796;DHT22;3942;51.518;6.912;2022-08-21T22:01:58;22.30;99.90
7796;DHT22;3942;51.518;6.912;2022-08-21T22:07:05;22.10;99.90
7796;DHT22;3942;51.518;6.912;2022-08-21T22:12:21;22.20;99.90
7796;DHT22;3942;51.518;6.912;2022-08-21T22:17:36;22.20;99.90
7796;DHT22;3942;51.518;6.912;2022-08-21T22:22:40;22.10;99.90
7796;DHT22;3942;51.518;6.912;2022-08-21T22:27:44;22.20;99.90
7796;DHT22;3942;51.518;6.912;2022-08-21T22:32:48;22.20;99.90
7796;DHT22;3942;51.518;6.912;2022-08-21T22:37:52;22.10;99.90
7796;DHT22;3942;51.518;6.912;2022-08-21T22:43:00;22.00;99.90
7796;DHT22;3942;51.518;6.912;2022-08-21T22:48:06;21.80;99.90
7796;DHT22;3942;51.518;6.912;2022-08-21T22:53:09;21.70;99.90
7796;DHT22;3942;51.518;6.912;2022-08-21T22:58:17;21.60;99.90
7796;DHT22;3942;51.518;6.912;2022-08-21T23:03:26;21.60;99.90
7796;DHT22;3942;51.518;6.912;2022-08-21T23:08:33;21.60;99.90
7796;DHT22;3942;51.518;6.912;2022-08-21T23:13:41;21.50;99.90
7796;DHT22;3942;51.518;6.912;2022-08-21T23:18:49;21.50;99.90
7796;DHT22;3942;51.518;6.912;2022-08-21T23:24:10;21.50;99.90
7796;DHT22;3942;51.518;6.912;2022-08-21T23:29:20;21.60;99.90
7796;DHT22;3942;51.518;6.912;2022-08-21T23:34:39;21.50;99.90
7796;DHT22;3942;51.518;6.912;2022-08-21T23:39:54;21.20;99.90
7796;DHT22;3942;51.518;6.912;2022-08-21T23:45:06;21.10;99.90
7796;DHT22;3942;51.518;6.912;2022-08-21T23:50:16;21.10;99.90
7796;DHT22;3942;51.518;6.912;2022-08-21T23:55:31;21.20;99.90
